sensor_id;sensor_type;location;lat;lon;timestamp;pressure;altitude;pressure_sealevel;temperature;humidity
71621;BME280;59471;42.254;23.102;2024-03-08T00:02:03;95914.84;;;3.82;100.00
71621;BME280;59471;42.254;23.102;2024-03-08T00:04:29;95915.91;;;3.70;100.00
71621;BME280;59471;42.254;23.102;2024-03-08T00:06:54;95917.16;;;3.76;100.00
71621;BME280;59471;42.254;23.102;2024-03-08T00:09:20;95918.84;;;3.56;100.00
71621;BME280;59471;42.254;23.102;2024-03-08T00:11:46;95915.59;;;3.54;100.00
71621;BME280;59471;42.254;23.102;2024-03-08T00:14:14;95905.50;;;3.51;100.00
71621;BME280;59471;42.254;23.102;2024-03-08T00:16:39;95911.00;;;3.67;100.00
71621;BME280;59471;42.254;23.102;2024-03-08T00:19:09;95905.31;;;3.92;100.00
71621;BME280;59471;42.254;23.102;2024-03-08T00:21:35;95900.94;;;3.83;100.00
71621;BME280;59471;42.254;23.102;2024-03-08T00:24:01;95902.03;;;3.90;100.00
71621;BME280;59471;42.254;23.102;2024-03-08T00:26:27;95905.88;;;4.15;100.00
71621;BME280;59471;42.254;23.102;2024-03-08T00:28:54;95903.00;;;4.48;100.00
71621;BME280;59471;42.254;23.102;2024-03-08T00:31:19;95893.44;;;4.48;100.00
71621;BME280;59471;42.254;23.102;2024-03-08T00:33:45;95900.00;;;4.23;100.00
71621;BME280;59471;42.254;23.102;2024-03-08T00:36:11;95894.94;;;4.22;100.00
71621;BME280;59471;42.254;23.102;2024-03-08T00:38:36;95888.94;;;4.40;100.00
71621;BME280;59471;42.254;23.102;2024-03-08T00:41:02;95890.72;;;4.21;100.00
71621;BME280;59471;42.254;23.102;2024-03-08T00:43:28;95888.94;;;4.21;100.00
71621;BME280;59471;42.254;23.102;2024-03-08T00:45:55;95887.16;;;4.31;100.00
71621;BME280;59471;42.254;23.102;2024-03-08T00:48:22;95880.50;;;4.38;100.00
71621;BME280;59471;42.254;23.102;2024-03-08T00:50:48;95874.22;;;4.31;100.00
71621;BME280;59471;42.254;23.102;2024-03-08T00:53:13;95874.63;;;4.36;100.00
71621;BME280;59471;42.254;23.102;2024-03-08T00:55:39;95862.47;;;4.47;100.00
71621;BME280;59471;42.254;23.102;2024-03-08T00:58:05;95857.81;;;4.40;100.00
71621;BME280;59471;42.254;23.102;2024-03-08T01:00:30;95868.47;;;4.37;100.00
71621;BME280;59471;42.254;23.102;2024-03-08T01:02:56;95862.34;;;4.38;100.00
71621;BME280;59471;42.254;23.102;2024-03-08T01:05:22;95861.94;;;4.33;100.00
71621;BME280;59471;42.254;23.102;2024-03-08T01:07:49;95859.75;;;4.38;100.00
71621;BME280;59471;42.254;23.102;2024-03-08T01:10:15;95858.94;;;4.48;100.00
71621;BME280;59471;42.254;23.102;2024-03-08T01:12:41;95850.19;;;4.39;100.00
71621;BME280;59471;42.254;23.102;2024-03-08T01:15:09;95858.94;;;4.18;100.00
71621;BME280;59471;42.254;23.102;2024-03-08T01:17:36;95859.19;;;4.25;100.00
71621;BME280;59471;42.254;23.102;2024-03-08T01:20:03;95852.94;;;4.28;100.00
71621;BME280;59471;42.254;23.102;2024-03-08T01:22:29;95841.75;;;4.27;100.00
71621;BME280;59471;42.254;23.102;2024-03-08T01:24:55;95842.81;;;4.34;100.00
71621;BME280;59471;42.254;23.102;2024-03-08T01:27:21;95848.00;;;4.44;100.00
71621;BME280;59471;42.254;23.102;2024-03-08T01:29:47;95840.63;;;4.49;100.00
71621;BME280;59471;42.254;23.102;2024-03-08T01:32:13;95835.47;;;4.20;100.00
71621;BME280;59471;42.254;23.102;2024-03-08T01:34:39;95842.03;;;4.14;100.00
71621;BME280;59471;42.254;23.102;2024-03-08T01:37:05;95835.09;;;3.95;100.00
71621;BME280;59471;42.254;23.102;2024-03-08T01:39:31;95829.75;;;3.68;100.00
71621;BME280;59471;42.254;23.102;2024-03-08T01:41:57;95834.78;;;3.50;100.00
71621;BME280;59471;42.254;23.102;2024-03-08T01:44:23;95839.28;;;3.58;100.00
71621;BME280;59471;42.254;23.102;2024-03-08T01:46:49;95842.94;;;3.45;100.00
71621;BME280;59471;42.254;23.102;2024-03-08T01:49:17;95834.63;;;3.52;100.00
71621;BME280;59471;42.254;23.102;2024-03-08T01:51:46;95839.28;;;3.48;100.00
71621;BME280;59471;42.254;23.102;2024-03-08T01:54:14;95835.44;;;3.42;100.00
71621;BME280;59471;42.254;23.102;2024-03-08T01:56:40;95847.63;;;3.21;100.00
71621;BME280;59471;42.254;23.102;2024-03-08T01:59:06;95842.69;;;3.08;100.00
71621;BME280;59471;42.254;23.102;2024-03-08T02:01:35;95837.56;;;3.18;100.00
71621;BME280;59471;42.254;23.102;2024-03-08T02:04:01;95834.28;;;3.16;100.00
71621;BME280;59471;42.254;23.102;2024-03-08T02:06:26;95839.59;;;3.24;100.00
71621;BME280;59471;42.254;23.102;2024-03-08T02:08:52;95841.09;;;3.17;100.00
71621;BME280;59471;42.254;23.102;2024-03-08T02:11:18;95844.50;;;3.17;100.00
71621;BME280;59471;42.254;23.102;2024-03-08T02:13:45;95850.38;;;3.19;100.00
71621;BME280;59471;42.254;23.102;2024-03-08T02:16:11;95851.22;;;3.30;100.00
71621;BME280;59471;42.254;23.102;2024-03-08T02:18:37;95846.34;;;3.46;100.00
71621;BME280;59471;42.254;23.102;2024-03-08T02:21:05;95851.91;;;3.32;100.00
71621;BME280;59471;42.254;23.102;2024-03-08T02:23:34;95847.69;;;3.40;100.00
71621;BME280;59471;42.254;23.102;2024-03-08T02:26:02;95850.59;;;3.47;100.00
71621;BME280;59471;42.254;23.102;2024-03-08T02:28:30;95850.44;;;3.48;100.00
71621;BME280;59471;42.254;23.102;2024-03-08T02:30:56;95850.00;;;3.43;100.00
71621;BME280;59471;42.254;23.102;2024-03-08T02:33:22;95858.34;;;3.47;100.00
71621;BME280;59471;42.254;23.102;2024-03-08T02:35:49;95856.72;;;3.56;100.00
71621;BME280;59471;42.254;23.102;2024-03-08T02:38:17;95853.31;;;3.65;100.00
71621;BME280;59471;42.254;23.102;2024-03-08T02:40:45;95852.13;;;3.79;100.00
71621;BME280;59471;42.254;23.102;2024-03-08T02:43:13;95857.03;;;3.72;100.00
71621;BME280;59471;42.254;23.102;2024-03-08T02:45:43;95854.84;;;3.77;100.00
71621;BME280;59471;42.254;23.102;2024-03-08T02:48:09;95856.03;;;3.54;100.00
71621;BME280;59471;42.254;23.102;2024-03-08T02:50:36;95862.94;;;3.34;100.00
71621;BME280;59471;42.254;23.102;2024-03-08T02:53:02;95869.22;;;3.00;100.00
71621;BME280;59471;42.254;23.102;2024-03-08T02:55:28;95871.47;;;2.84;100.00
71621;BME280;59471;42.254;23.102;2024-03-08T02:57:54;95859.22;;;2.86;100.00
71621;BME280;59471;42.254;23.102;2024-03-08T03:00:21;95864.41;;;3.27;100.00
71621;BME280;59471;42.254;23.102;2024-03-08T03:02:49;95864.66;;;3.14;100.00
71621;BME280;59471;42.254;23.102;2024-03-08T03:05:19;95867.00;;;3.27;100.00
71621;BME280;59471;42.254;23.102;2024-03-08T03:07:46;95864.34;;;3.07;100.00
71621;BME280;59471;42.254;23.102;2024-03-08T03:10:11;95881.56;;;2.87;100.00
71621;BME280;59471;42.254;23.102;2024-03-08T03:12:43;95869.09;;;3.02;100.00
71621;BME280;59471;42.254;23.102;2024-03-08T03:15:11;95870.78;;;3.13;100.00
71621;BME280;59471;42.254;23.102;2024-03-08T03:17:38;95875.75;;;3.35;100.00
71621;BME280;59471;42.254;23.102;2024-03-08T03:20:06;95887.41;;;3.20;100.00
71621;BME280;59471;42.254;23.102;2024-03-08T03:22:38;95890.97;;;3.19;100.00
71621;BME280;59471;42.254;23.102;2024-03-08T03:25:04;95881.19;;;3.32;100.00
71621;BME280;59471;42.254;23.102;2024-03-08T03:27:32;95887.44;;;3.30;100.00
71621;BME280;59471;42.254;23.102;2024-03-08T03:29:57;95884.34;;;3.05;100.00
71621;BME280;59471;42.254;23.102;2024-03-08T03:32:23;95885.69;;;3.30;100.00
71621;BME280;59471;42.254;23.102;2024-03-08T03:34:49;95887.13;;;3.13;100.00
71621;BME280;59471;42.254;23.102;2024-03-08T03:37:18;95890.69;;;3.22;100.00
71621;BME280;59471;42.254;23.102;2024-03-08T03:39:45;95891.28;;;2.74;100.00
71621;BME280;59471;42.254;23.102;2024-03-08T03:42:18;95886.09;;;2.74;100.00
71621;BME280;59471;42.254;23.102;2024-03-08T03:44:47;95891.41;;;2.72;100.00
71621;BME280;59471;42.254;23.102;2024-03-08T03:47:14;95894.75;;;2.84;100.00
71621;BME280;59471;42.254;23.102;2024-03-08T03:49:41;95895.00;;;3.12;100.00
71621;BME280;59471;42.254;23.102;2024-03-08T03:52:07;95890.19;;;3.28;100.00
71621;BME280;59471;42.254;23.102;2024-03-08T03:54:32;95890.19;;;3.28;100.00
71621;BME280;59471;42.254;23.102;2024-03-08T03:56:59;95892.66;;;3.39;100.00
71621;BME280;59471;42.254;23.102;2024-03-08T03:59:26;95894.03;;;3.43;100.00
71621;BME280;59471;42.254;23.102;2024-03-08T04:01:53;95899.81;;;3.57;100.00
71621;BME280;59471;42.254;23.102;2024-03-08T04:04:19;95897.47;;;3.54;100.00
71621;BME280;59471;42.254;23.102;2024-03-08T04:06:45;95900.91;;;3.64;100.00
71621;BME280;59471;42.254;23.102;2024-03-08T04:09:11;95899.38;;;3.52;100.00
71621;BME280;59471;42.254;23.102;2024-03-08T04:11:38;95897.84;;;3.49;100.00
71621;BME280;59471;42.254;23.102;2024-03-08T04:14:04;95902.75;;;3.42;100.00
71621;BME280;59471;42.254;23.102;2024-03-08T04:16:30;95895.69;;;3.54;100.00
71621;BME280;59471;42.254;23.102;2024-03-08T04:18:57;95900.91;;;3.64;100.00
71621;BME280;59471;42.254;23.102;2024-03-08T04:21:23;95911.00;;;3.67;100.00
71621;BME280;59471;42.254;23.102;2024-03-08T04:23:48;95907.56;;;3.57;100.00
71621;BME280;59471;42.254;23.102;2024-03-08T04:26:14;95921.81;;;3.41;100.00
71621;BME280;59471;42.254;23.102;2024-03-08T04:28:39;95914.22;;;3.49;100.00
71621;BME280;59471;42.254;23.102;2024-03-08T04:31:05;95920.00;;;3.63;100.00
71621;BME280;59471;42.254;23.102;2024-03-08T04:33:32;95915.06;;;3.50;100.00
71621;BME280;59471;42.254;23.102;2024-03-08T04:35:57;95932.47;;;3.17;100.00
71621;BME280;59471;42.254;23.102;2024-03-08T04:38:23;95925.50;;;3.08;100.00
71621;BME280;59471;42.254;23.102;2024-03-08T04:40:50;95925.75;;;3.05;100.00
71621;BME280;59471;42.254;23.102;2024-03-08T04:43:15;95933.47;;;3.26;100.00
71621;BME280;59471;42.254;23.102;2024-03-08T04:45:43;95930.13;;;3.35;100.00
71621;BME280;59471;42.254;23.102;2024-03-08T04:48:09;95932.78;;;3.24;100.00
71621;BME280;59471;42.254;23.102;2024-03-08T04:50:35;95932.16;;;3.32;100.00
71621;BME280;59471;42.254;23.102;2024-03-08T04:53:00;95924.03;;;3.56;100.00
71621;BME280;59471;42.254;23.102;2024-03-08T04:55:26;95929.47;;;3.53;100.00
71621;BME280;59471;42.254;23.102;2024-03-08T04:57:51;95938.72;;;3.45;100.00
71621;BME280;59471;42.254;23.102;2024-03-08T05:00:18;95935.19;;;3.46;100.00
71621;BME280;59471;42.254;23.102;2024-03-08T05:02:44;95943.31;;;3.32;100.00
71621;BME280;59471;42.254;23.102;2024-03-08T05:05:10;95945.13;;;3.41;100.00
71621;BME280;59471;42.254;23.102;2024-03-08T05:07:41;95945.34;;;3.29;100.00
71621;BME280;59471;42.254;23.102;2024-03-08T05:10:08;95951.16;;;3.21;100.00
71621;BME280;59471;42.254;23.102;2024-03-08T05:12:34;95949.56;;;3.30;100.00
71621;BME280;59471;42.254;23.102;2024-03-08T05:14:59;95954.06;;;3.68;100.00
71621;BME280;59471;42.254;23.102;2024-03-08T05:17:25;95959.41;;;3.76;100.00
71621;BME280;59471;42.254;23.102;2024-03-08T05:19:51;95954.50;;;3.73;100.00
71621;BME280;59471;42.254;23.102;2024-03-08T05:22:16;95962.56;;;3.80;100.00
71621;BME280;59471;42.254;23.102;2024-03-08T05:24:43;95963.38;;;3.80;100.00
71621;BME280;59471;42.254;23.102;2024-03-08T05:27:08;95952.72;;;3.74;100.00
71621;BME280;59471;42.254;23.102;2024-03-08T05:29:34;95976.22;;;3.91;100.00
71621;BME280;59471;42.254;23.102;2024-03-08T05:31:59;95972.38;;;3.76;100.00
71621;BME280;59471;42.254;23.102;2024-03-08T05:34:25;95971.03;;;3.91;100.00
71621;BME280;59471;42.254;23.102;2024-03-08T05:36:51;95985.66;;;4.12;100.00
71621;BME280;59471;42.254;23.102;2024-03-08T05:39:17;95975.78;;;3.86;100.00
71621;BME280;59471;42.254;23.102;2024-03-08T05:41:44;95976.41;;;4.19;100.00
71621;BME280;59471;42.254;23.102;2024-03-08T05:44:10;95978.19;;;4.28;100.00
71621;BME280;59471;42.254;23.102;2024-03-08T05:46:36;95985.84;;;4.20;100.00
71621;BME280;59471;42.254;23.102;2024-03-08T05:49:06;95988.72;;;4.36;100.00
71621;BME280;59471;42.254;23.102;2024-03-08T05:51:36;95982.16;;;4.32;100.00
71621;BME280;59471;42.254;23.102;2024-03-08T05:54:04;95983.38;;;4.28;100.00
71621;BME280;59471;42.254;23.102;2024-03-08T05:56:32;95998.66;;;4.31;100.00
71621;BME280;59471;42.254;23.102;2024-03-08T05:58:58;96000.06;;;4.55;100.00
71621;BME280;59471;42.254;23.102;2024-03-08T06:01:26;95999.78;;;4.38;100.00
71621;BME280;59471;42.254;23.102;2024-03-08T06:03:53;96002.22;;;4.30;100.00
71621;BME280;59471;42.254;23.102;2024-03-08T06:06:21;96005.34;;;4.63;100.00
71621;BME280;59471;42.254;23.102;2024-03-08T06:08:48;96011.25;;;4.65;100.00
71621;BME280;59471;42.254;23.102;2024-03-08T06:11:18;96009.34;;;4.57;100.00
71621;BME280;59471;42.254;23.102;2024-03-08T06:13:44;96011.78;;;4.78;100.00
71621;BME280;59471;42.254;23.102;2024-03-08T06:16:10;96010.97;;;4.87;100.00
71621;BME280;59471;42.254;23.102;2024-03-08T06:18:37;96016.56;;;4.93;100.00
71621;BME280;59471;42.254;23.102;2024-03-08T06:21:05;96007.41;;;4.50;100.00
71621;BME280;59471;42.254;23.102;2024-03-08T06:23:32;96013.13;;;4.63;100.00
71621;BME280;59471;42.254;23.102;2024-03-08T06:25:58;96021.34;;;4.87;100.00
71621;BME280;59471;42.254;23.102;2024-03-08T06:28:24;96024.19;;;5.04;100.00
71621;BME280;59471;42.254;23.102;2024-03-08T06:30:49;96025.69;;;5.16;100.00
71621;BME280;59471;42.254;23.102;2024-03-08T06:33:19;96024.03;;;5.25;100.00
71621;BME280;59471;42.254;23.102;2024-03-08T06:35:45;96027.84;;;5.30;100.00
71621;BME280;59471;42.254;23.102;2024-03-08T06:38:10;96023.31;;;5.32;100.00
71621;BME280;59471;42.254;23.102;2024-03-08T06:40:36;96032.47;;;5.37;100.00
71621;BME280;59471;42.254;23.102;2024-03-08T06:43:02;96027.28;;;5.37;100.00
71621;BME280;59471;42.254;23.102;2024-03-08T06:45:31;96037.00;;;5.34;100.00
71621;BME280;59471;42.254;23.102;2024-03-08T06:47:57;96031.66;;;5.46;100.00
71621;BME280;59471;42.254;23.102;2024-03-08T06:50:22;96045.53;;;5.54;100.00
71621;BME280;59471;42.254;23.102;2024-03-08T06:52:48;96044.06;;;5.52;100.00
71621;BME280;59471;42.254;23.102;2024-03-08T06:55:19;96049.38;;;5.60;100.00
71621;BME280;59471;42.254;23.102;2024-03-08T06:57:45;96051.28;;;5.68;100.00
71621;BME280;59471;42.254;23.102;2024-03-08T07:00:11;96046.91;;;5.58;100.00
71621;BME280;59471;42.254;23.102;2024-03-08T07:02:44;96045.28;;;5.48;99.67
71621;BME280;59471;42.254;23.102;2024-03-08T07:05:11;96052.72;;;5.33;99.22
71621;BME280;59471;42.254;23.102;2024-03-08T07:07:37;96048.06;;;5.37;98.82
71621;BME280;59471;42.254;23.102;2024-03-08T07:10:03;96048.84;;;5.47;99.31
71621;BME280;59471;42.254;23.102;2024-03-08T07:12:29;96052.75;;;5.70;98.10
71621;BME280;59471;42.254;23.102;2024-03-08T07:14:55;96048.34;;;5.80;98.14
71621;BME280;59471;42.254;23.102;2024-03-08T07:17:20;96048.44;;;5.89;97.74
71621;BME280;59471;42.254;23.102;2024-03-08T07:19:46;96050.66;;;5.93;97.54
71621;BME280;59471;42.254;23.102;2024-03-08T07:22:12;96047.94;;;5.75;97.79
71621;BME280;59471;42.254;23.102;2024-03-08T07:24:37;96054.06;;;5.37;97.65
71621;BME280;59471;42.254;23.102;2024-03-08T07:27:35;96043.72;;;5.27;97.25
71621;BME280;59471;42.254;23.102;2024-03-08T07:30:04;96050.47;;;5.57;96.59
71621;BME280;59471;42.254;23.102;2024-03-08T07:32:30;96052.94;;;5.59;96.10
71621;BME280;59471;42.254;23.102;2024-03-08T07:34:57;96047.44;;;5.62;95.61
71621;BME280;59471;42.254;23.102;2024-03-08T07:37:22;96048.06;;;5.84;93.25
71621;BME280;59471;42.254;23.102;2024-03-08T07:39:48;96036.97;;;5.81;95.25
71621;BME280;59471;42.254;23.102;2024-03-08T07:42:14;96038.72;;;5.91;95.49
71621;BME280;59471;42.254;23.102;2024-03-08T07:44:39;96040.59;;;5.71;96.97
71621;BME280;59471;42.254;23.102;2024-03-08T07:47:05;96045.00;;;5.51;95.99
71621;BME280;59471;42.254;23.102;2024-03-08T07:49:34;96049.38;;;5.60;96.16
71621;BME280;59471;42.254;23.102;2024-03-08T07:52:03;96051.03;;;5.51;95.55
71621;BME280;59471;42.254;23.102;2024-03-08T07:54:30;96056.53;;;5.86;96.01
71621;BME280;59471;42.254;23.102;2024-03-08T07:56:56;96056.38;;;5.97;94.13
71621;BME280;59471;42.254;23.102;2024-03-08T07:59:21;96050.34;;;6.24;94.53
71621;BME280;59471;42.254;23.102;2024-03-08T08:01:47;96053.69;;;6.44;91.81
71621;BME280;59471;42.254;23.102;2024-03-08T08:04:13;96053.69;;;6.80;91.38
71621;BME280;59471;42.254;23.102;2024-03-08T08:06:40;96045.50;;;6.74;87.74
71621;BME280;59471;42.254;23.102;2024-03-08T08:09:08;96039.13;;;6.69;88.36
71621;BME280;59471;42.254;23.102;2024-03-08T08:11:40;96053.84;;;6.60;89.50
71621;BME280;59471;42.254;23.102;2024-03-08T08:14:09;96043.84;;;6.38;90.56
71621;BME280;59471;42.254;23.102;2024-03-08T08:16:35;96050.34;;;6.52;90.23
71621;BME280;59471;42.254;23.102;2024-03-08T08:19:03;96059.06;;;6.60;88.65
71621;BME280;59471;42.254;23.102;2024-03-08T08:21:36;96056.34;;;6.52;89.46
71621;BME280;59471;42.254;23.102;2024-03-08T08:24:03;96054.22;;;6.83;86.94
71621;BME280;59471;42.254;23.102;2024-03-08T08:26:29;96049.00;;;6.83;86.90
71621;BME280;59471;42.254;23.102;2024-03-08T08:28:55;96048.13;;;6.92;86.65
71621;BME280;59471;42.254;23.102;2024-03-08T08:31:20;96054.75;;;6.87;85.83
71621;BME280;59471;42.254;23.102;2024-03-08T08:33:46;96055.47;;;6.61;85.45
71621;BME280;59471;42.254;23.102;2024-03-08T08:36:13;96045.00;;;6.71;85.68
71621;BME280;59471;42.254;23.102;2024-03-08T08:38:39;96051.16;;;7.06;85.04
71621;BME280;59471;42.254;23.102;2024-03-08T08:41:04;96051.88;;;7.34;86.70
71621;BME280;59471;42.254;23.102;2024-03-08T08:43:31;96059.44;;;7.19;85.94
71621;BME280;59471;42.254;23.102;2024-03-08T08:45:58;96050.31;;;7.41;85.66
71621;BME280;59471;42.254;23.102;2024-03-08T08:48:24;96048.00;;;7.38;83.02
71621;BME280;59471;42.254;23.102;2024-03-08T08:50:50;96057.53;;;7.47;83.15
71621;BME280;59471;42.254;23.102;2024-03-08T08:53:17;96053.31;;;7.54;85.01
71621;BME280;59471;42.254;23.102;2024-03-08T08:55:43;96043.66;;;7.73;84.32
71621;BME280;59471;42.254;23.102;2024-03-08T08:58:11;96039.56;;;7.70;83.29
71621;BME280;59471;42.254;23.102;2024-03-08T09:00:36;96043.13;;;7.95;81.03
71621;BME280;59471;42.254;23.102;2024-03-08T09:03:02;96040.50;;;7.95;81.55
71621;BME280;59471;42.254;23.102;2024-03-08T09:05:28;96039.47;;;7.88;82.46
71621;BME280;59471;42.254;23.102;2024-03-08T09:07:54;96032.75;;;7.77;81.14
71621;BME280;59471;42.254;23.102;2024-03-08T09:10:20;96039.59;;;7.78;82.69
71621;BME280;59471;42.254;23.102;2024-03-08T09:12:46;96041.38;;;7.70;82.21
71621;BME280;59471;42.254;23.102;2024-03-08T09:15:12;96039.09;;;7.23;82.00
71621;BME280;59471;42.254;23.102;2024-03-08T09:17:38;96031.78;;;7.52;83.54
71621;BME280;59471;42.254;23.102;2024-03-08T09:20:09;96035.09;;;7.88;82.47
71621;BME280;59471;42.254;23.102;2024-03-08T09:22:39;96037.53;;;7.90;80.61
71621;BME280;59471;42.254;23.102;2024-03-08T09:25:05;96034.19;;;7.98;79.15
71621;BME280;59471;42.254;23.102;2024-03-08T09:27:32;96033.75;;;8.10;79.25
71621;BME280;59471;42.254;23.102;2024-03-08T09:29:59;96032.72;;;8.03;78.43
71621;BME280;59471;42.254;23.102;2024-03-08T09:32:24;96033.47;;;7.61;79.20
71621;BME280;59471;42.254;23.102;2024-03-08T09:34:51;96024.38;;;7.65;79.73
71621;BME280;59471;42.254;23.102;2024-03-08T09:37:17;96040.50;;;7.95;80.47
71621;BME280;59471;42.254;23.102;2024-03-08T09:39:42;96042.81;;;7.98;81.21
71621;BME280;59471;42.254;23.102;2024-03-08T09:42:09;96048.75;;;8.17;79.41
71621;BME280;59471;42.254;23.102;2024-03-08T09:44:36;96037.03;;;8.29;80.64
71621;BME280;59471;42.254;23.102;2024-03-08T09:47:02;96041.94;;;8.74;80.61
71621;BME280;59471;42.254;23.102;2024-03-08T09:49:28;96038.88;;;8.95;79.85
71621;BME280;59471;42.254;23.102;2024-03-08T09:51:54;96031.00;;;9.03;77.43
71621;BME280;59471;42.254;23.102;2024-03-08T09:54:21;96038.38;;;9.00;76.17
71621;BME280;59471;42.254;23.102;2024-03-08T09:56:48;96038.84;;;8.87;73.48
71621;BME280;59471;42.254;23.102;2024-03-08T09:59:14;96038.50;;;8.98;75.01
71621;BME280;59471;42.254;23.102;2024-03-08T10:01:59;96034.69;;;8.44;72.63
71621;BME280;59471;42.254;23.102;2024-03-08T10:04:25;96029.53;;;8.76;72.42
71621;BME280;59471;42.254;23.102;2024-03-08T10:06:53;96026.44;;;8.97;73.62
71621;BME280;59471;42.254;23.102;2024-03-08T10:09:19;96028.72;;;9.41;71.83
71621;BME280;59471;42.254;23.102;2024-03-08T10:11:46;96025.06;;;9.67;74.00
71621;BME280;59471;42.254;23.102;2024-03-08T10:14:11;96023.31;;;10.07;73.33
71621;BME280;59471;42.254;23.102;2024-03-08T10:16:38;96011.13;;;10.30;72.42
71621;BME280;59471;42.254;23.102;2024-03-08T10:19:05;96019.69;;;10.55;69.58
71621;BME280;59471;42.254;23.102;2024-03-08T10:21:32;96017.41;;;10.52;71.37
71621;BME280;59471;42.254;23.102;2024-03-08T10:23:58;96019.19;;;10.83;68.67
71621;BME280;59471;42.254;23.102;2024-03-08T10:26:24;96016.00;;;10.41;67.51
71621;BME280;59471;42.254;23.102;2024-03-08T10:28:53;96009.84;;;10.18;70.43
71621;BME280;59471;42.254;23.102;2024-03-08T10:31:19;96005.53;;;10.41;66.65
71621;BME280;59471;42.254;23.102;2024-03-08T10:33:48;95997.75;;;10.25;67.62
71621;BME280;59471;42.254;23.102;2024-03-08T10:36:15;96009.28;;;10.70;69.42
71621;BME280;59471;42.254;23.102;2024-03-08T10:38:41;96014.63;;;11.00;67.19
71621;BME280;59471;42.254;23.102;2024-03-08T10:41:11;96002.34;;;10.15;64.71
71621;BME280;59471;42.254;23.102;2024-03-08T10:46:58;96005.22;;;9.89;66.91
71621;BME280;59471;42.254;23.102;2024-03-08T10:49:38;95995.97;;;9.78;65.77
71621;BME280;59471;42.254;23.102;2024-03-08T10:52:04;95999.16;;;9.49;67.55
71621;BME280;59471;42.254;23.102;2024-03-08T10:54:34;95992.41;;;9.71;69.59
71621;BME280;59471;42.254;23.102;2024-03-08T10:57:05;96005.09;;;9.82;66.75
71621;BME280;59471;42.254;23.102;2024-03-08T10:59:32;95995.34;;;9.68;67.68
71621;BME280;59471;42.254;23.102;2024-03-08T11:01:59;95986.22;;;9.47;67.72
71621;BME280;59471;42.254;23.102;2024-03-08T11:04:25;95987.50;;;9.68;67.23
71621;BME280;59471;42.254;23.102;2024-03-08T11:06:52;95981.34;;;9.92;69.97
71621;BME280;59471;42.254;23.102;2024-03-08T11:09:37;95978.75;;;10.23;66.40
71621;BME280;59471;42.254;23.102;2024-03-08T11:12:23;95978.06;;;10.37;63.75
71621;BME280;59471;42.254;23.102;2024-03-08T11:15:02;95980.28;;;10.49;61.08
71621;BME280;59471;42.254;23.102;2024-03-08T11:17:42;95965.66;;;10.23;63.89
71621;BME280;59471;42.254;23.102;2024-03-08T11:20:12;95962.88;;;10.56;63.16
71621;BME280;59471;42.254;23.102;2024-03-08T11:22:42;95963.41;;;10.28;61.67
71621;BME280;59471;42.254;23.102;2024-03-08T11:25:36;95964.56;;;10.72;63.14
71621;BME280;59471;42.254;23.102;2024-03-08T11:28:17;95954.56;;;10.21;63.71
71621;BME280;59471;42.254;23.102;2024-03-08T11:33:31;95956.56;;;10.11;65.90
71621;BME280;59471;42.254;23.102;2024-03-08T11:36:32;95957.03;;;10.14;64.47
71621;BME280;59471;42.254;23.102;2024-03-08T11:39:02;95950.75;;;10.01;66.31
71621;BME280;59471;42.254;23.102;2024-03-08T11:41:34;95953.84;;;10.35;64.92
71621;BME280;59471;42.254;23.102;2024-03-08T11:44:04;95949.31;;;10.52;63.80
71621;BME280;59471;42.254;23.102;2024-03-08T11:46:30;95951.56;;;10.40;63.88
71621;BME280;59471;42.254;23.102;2024-03-08T11:48:56;95941.88;;;10.41;64.61
71621;BME280;59471;42.254;23.102;2024-03-08T11:51:22;95936.47;;;10.42;64.15
71621;BME280;59471;42.254;23.102;2024-03-08T11:53:49;95932.81;;;10.52;63.43
71621;BME280;59471;42.254;23.102;2024-03-08T11:56:17;95939.69;;;10.90;65.97
71621;BME280;59471;42.254;23.102;2024-03-08T11:58:55;95937.31;;;11.04;63.30
71621;BME280;59471;42.254;23.102;2024-03-08T12:01:22;95929.91;;;11.22;62.50
71621;BME280;59471;42.254;23.102;2024-03-08T12:03:56;95927.97;;;11.54;65.03
71621;BME280;59471;42.254;23.102;2024-03-08T12:06:24;95935.28;;;11.58;62.76
71621;BME280;59471;42.254;23.102;2024-03-08T12:08:52;95940.84;;;11.11;61.59
71621;BME280;59471;42.254;23.102;2024-03-08T12:11:19;95937.91;;;10.91;61.04
71621;BME280;59471;42.254;23.102;2024-03-08T12:13:48;95945.72;;;10.76;61.43
71621;BME280;59471;42.254;23.102;2024-03-08T12:16:17;95935.81;;;10.86;60.99
71621;BME280;59471;42.254;23.102;2024-03-08T12:18:44;95936.94;;;10.69;63.78
71621;BME280;59471;42.254;23.102;2024-03-08T12:21:11;95928.84;;;10.56;63.54
71621;BME280;59471;42.254;23.102;2024-03-08T12:23:39;95935.38;;;10.60;62.78
71621;BME280;59471;42.254;23.102;2024-03-08T12:26:15;95927.06;;;10.56;60.56
71621;BME280;59471;42.254;23.102;2024-03-08T12:28:43;95924.75;;;10.76;61.53
71621;BME280;59471;42.254;23.102;2024-03-08T12:31:12;95926.38;;;10.77;60.52
71621;BME280;59471;42.254;23.102;2024-03-08T12:36:17;95911.81;;;10.75;58.88
71621;BME280;59471;42.254;23.102;2024-03-08T12:38:47;95921.00;;;10.94;57.99
71621;BME280;59471;42.254;23.102;2024-03-08T12:41:16;95915.91;;;11.00;58.22
71621;BME280;59471;42.254;23.102;2024-03-08T12:43:44;95916.06;;;10.99;58.88
71621;BME280;59471;42.254;23.102;2024-03-08T12:46:20;95913.84;;;11.40;59.87
71621;BME280;59471;42.254;23.102;2024-03-08T12:48:47;95918.28;;;11.40;59.18
71621;BME280;59471;42.254;23.102;2024-03-08T12:51:13;95913.03;;;11.54;56.03
71621;BME280;59471;42.254;23.102;2024-03-08T12:53:44;95914.00;;;11.68;57.75
71621;BME280;59471;42.254;23.102;2024-03-08T12:56:11;95900.63;;;11.78;56.43
71621;BME280;59471;42.254;23.102;2024-03-08T12:58:37;95908.38;;;12.01;55.24
71621;BME280;59471;42.254;23.102;2024-03-08T13:01:04;95903.13;;;12.37;55.63
71621;BME280;59471;42.254;23.102;2024-03-08T13:03:30;95893.94;;;12.97;54.61